createdAt,value
2022-08-18T00:00:25.100Z,30.05
2022-08-18T00:01:28.699Z,32.67
2022-08-18T00:02:34.656Z,31.90
2022-08-18T00:03:55.835Z,33.00
2022-08-18T00:05:00.249Z,31.85
2022-08-18T00:06:01.853Z,33.60
2022-08-18T00:07:04.666Z,31.33
2022-08-18T00:08:06.678Z,33.50
2022-08-18T00:09:11.212Z,30.58
2022-08-18T00:10:18.973Z,31.60
2022-08-18T00:11:21.052Z,31.63
2022-08-18T00:12:26.142Z,31.55
2022-08-18T00:13:27.924Z,32.35
2022-08-18T00:14:30.720Z,34.05
2022-08-18T00:15:32.332Z,32.47
2022-08-18T00:16:45.019Z,32.60
2022-08-18T00:17:48.439Z,33.65
2022-08-18T00:18:50.132Z,33.92
2022-08-18T00:19:52.790Z,31.92
2022-08-18T00:20:54.606Z,33.22
2022-08-18T00:21:57.316Z,32.33
2022-08-18T00:22:59.048Z,32.38
2022-08-18T00:24:01.705Z,31.95
2022-08-18T00:25:05.639Z,34.22
2022-08-18T00:26:08.596Z,33.78
2022-08-18T00:27:12.475Z,32.22
2022-08-18T00:28:14.688Z,33.25
2022-08-18T00:29:17.340Z,35.03
2022-08-18T00:30:21.179Z,35.80
2022-08-18T00:31:23.806Z,33.58
2022-08-18T00:32:28.099Z,36.50
2022-08-18T00:33:30.733Z,34.58
2022-08-18T00:34:33.293Z,34.58
2022-08-18T00:35:38.138Z,35.55
2022-08-18T00:36:41.034Z,34.92
2022-08-18T00:37:43.227Z,37.17
2022-08-18T00:38:45.830Z,35.13
2022-08-18T00:39:48.127Z,34.63
2022-08-18T00:40:52.482Z,30.40
2022-08-18T00:41:56.208Z,33.55
2022-08-18T00:43:01.836Z,35.08
2022-08-18T00:44:04.561Z,36.08
2022-08-18T00:45:08.560Z,36.13
2022-08-18T00:46:13.689Z,37.03
2022-08-18T00:47:16.371Z,36.58
2022-08-18T00:48:38.946Z,38.22
2022-08-18T00:49:42.202Z,39.78
2022-08-18T00:50:48.239Z,38.55
2022-08-18T00:51:51.275Z,39.75
2022-08-18T00:52:57.104Z,35.97
2022-08-18T00:54:03.878Z,37.50
2022-08-18T00:55:07.245Z,38.08
2022-08-18T00:56:12.371Z,37.13
2022-08-18T00:57:19.075Z,38.40
2022-08-18T00:58:25.021Z,35.63
2022-08-18T00:59:31.278Z,35.90
2022-08-18T01:00:34.093Z,36.72
2022-08-18T01:01:37.904Z,38.55
2022-08-18T01:02:43.426Z,37.63
2022-08-18T01:03:53.747Z,38.35
2022-08-18T01:04:59.383Z,39.45
2022-08-18T01:06:04.059Z,40.10
2022-08-18T01:07:09.234Z,37.45
2022-08-18T01:08:16.473Z,39.42
2022-08-18T01:09:21.948Z,36.13
2022-08-18T01:10:23.988Z,41.45
2022-08-18T01:11:26.696Z,36.95
2022-08-18T01:12:45.352Z,35.92
2022-08-18T01:13:49.256Z,37.67
2022-08-18T01:14:50.944Z,37.97
2022-08-18T01:15:53.542Z,37.00
2022-08-18T01:17:13.845Z,38.22
2022-08-18T01:18:33.998Z,39.15
2022-08-18T01:19:54.767Z,39.10
2022-08-18T01:21:19.635Z,39.10
2022-08-18T01:22:25.761Z,37.75
2022-08-18T01:23:29.825Z,38.45
2022-08-18T01:25:08.207Z,34.38
2022-08-18T01:26:11.018Z,33.42
2022-08-18T01:27:18.307Z,33.40
2022-08-18T01:28:23.671Z,29.25
2022-08-18T01:29:27.835Z,34.55
2022-08-18T01:30:30.748Z,31.95
2022-08-18T01:31:38.002Z,26.38
2022-08-18T01:32:40.963Z,19.27
2022-08-18T01:33:45.225Z,35.25
2022-08-18T01:34:48.037Z,37.10
2022-08-18T01:35:50.685Z,33.67
2022-08-18T01:36:52.668Z,30.25
2022-08-18T01:37:55.988Z,30.67
2022-08-18T01:38:58.960Z,37.30
2022-08-18T01:41:24.151Z,33.22
2022-08-18T01:41:30.853Z,36.25
2022-08-18T01:42:34.054Z,27.80
2022-08-18T01:43:37.297Z,35.88
2022-08-18T01:44:41.678Z,35.00
2022-08-18T01:45:43.482Z,29.88
2022-08-18T01:46:46.065Z,31.90
2022-08-18T01:47:48.721Z,36.03
2022-08-18T01:48:52.074Z,19.60
2022-08-18T01:49:53.683Z,33.95
2022-08-18T01:50:57.010Z,28.05
2022-08-18T01:51:58.705Z,37.10
2022-08-18T01:53:01.386Z,30.55
2022-08-18T01:54:05.228Z,38.92
2022-08-18T01:55:08.850Z,37.83
2022-08-18T01:56:17.624Z,28.50
2022-08-18T01:57:21.473Z,41.28
2022-08-18T01:58:31.630Z,41.10
2022-08-18T01:59:35.259Z,38.40
2022-08-18T02:00:36.918Z,21.58
2022-08-18T02:01:48.102Z,25.60
2022-08-18T02:03:01.602Z,37.70
2022-08-18T02:04:33.372Z,30.67
2022-08-18T02:05:33.563Z,21.13
2022-08-18T02:06:35.248Z,42.30
2022-08-18T02:07:38.052Z,41.90
2022-08-18T02:08:43.608Z,32.78
2022-08-18T02:09:51.016Z,39.95
2022-08-18T02:10:52.846Z,38.13
2022-08-18T02:11:56.313Z,39.05
2022-08-18T02:12:58.004Z,39.63
2022-08-18T02:14:00.858Z,38.90
2022-08-18T02:15:03.253Z,34.72
2022-08-18T02:16:06.147Z,30.85
2022-08-18T02:17:10.243Z,20.55
2022-08-18T02:18:25.965Z,29.45
2022-08-18T02:19:40.963Z,24.73
2022-08-18T02:20:44.843Z,35.20
2022-08-18T02:21:46.549Z,24.55
2022-08-18T02:22:49.639Z,35.42
2022-08-18T02:23:53.703Z,37.45
2022-08-18T02:24:59.063Z,33.45
2022-08-18T02:26:05.081Z,24.52
2022-08-18T02:27:08.802Z,23.92
2022-08-18T02:28:11.432Z,32.53
2022-08-18T02:29:14.722Z,21.05
2022-08-18T02:30:18.166Z,30.85
2022-08-18T02:31:22.783Z,26.00
2022-08-18T02:32:24.398Z,20.98
2022-08-18T02:33:31.174Z,20.10
2022-08-18T02:34:33.202Z,21.45
2022-08-18T02:35:36.103Z,19.98
2022-08-18T02:36:37.787Z,21.02
2022-08-18T02:37:42.355Z,25.50
2022-08-18T02:38:44.253Z,27.83
2022-08-18T02:39:59.034Z,19.85
2022-08-18T02:41:02.120Z,25.27
2022-08-18T02:42:05.608Z,32.10
2022-08-18T02:43:09.361Z,26.33
2022-08-18T02:44:12.983Z,19.75
2022-08-18T02:45:17.488Z,20.33
2022-08-18T02:46:20.120Z,21.42
2022-08-18T02:47:25.175Z,21.33
2022-08-18T02:48:31.175Z,33.72
2022-08-18T02:49:33.086Z,33.28
2022-08-18T02:50:44.701Z,33.15
2022-08-18T02:51:46.478Z,20.35
2022-08-18T02:52:49.648Z,32.78
2022-08-18T02:53:51.415Z,22.20
2022-08-18T02:54:56.414Z,19.90
2022-08-18T02:56:16.275Z,28.60
2022-08-18T02:57:36.433Z,24.02
2022-08-18T02:58:38.104Z,25.20
2022-08-18T02:59:41.999Z,23.73
2022-08-18T03:00:49.009Z,31.50
2022-08-18T03:01:56.361Z,21.38
2022-08-18T03:02:58.143Z,32.55
2022-08-18T03:04:01.716Z,33.00
2022-08-18T03:05:03.768Z,34.42
2022-08-18T03:06:07.126Z,33.88
2022-08-18T03:07:09.189Z,34.58
2022-08-18T03:08:12.574Z,33.88
2022-08-18T03:09:15.511Z,33.50
2022-08-18T03:10:33.367Z,32.38
2022-08-18T03:11:37.553Z,33.20
2022-08-18T03:12:40.192Z,33.03
2022-08-18T03:13:42.115Z,35.78
2022-08-18T03:14:44.766Z,34.03
2022-08-18T03:15:47.048Z,34.20
2022-08-18T03:16:53.479Z,33.38
2022-08-18T03:17:56.313Z,35.97
2022-08-18T03:18:59.178Z,36.50
2022-08-18T03:20:01.042Z,35.47
2022-08-18T03:21:10.068Z,33.78
2022-08-18T03:22:28.287Z,35.58
2022-08-18T03:23:32.209Z,36.55
2022-08-18T03:24:34.919Z,36.58
2022-08-18T03:25:37.575Z,36.67
2022-08-18T03:26:42.634Z,34.83
2022-08-18T03:27:45.241Z,35.20
2022-08-18T03:28:49.347Z,37.33
2022-08-18T03:29:52.410Z,36.03
2022-08-18T03:30:54.042Z,37.00
2022-08-18T03:31:56.621Z,36.33
2022-08-18T03:32:58.320Z,37.72
2022-08-18T03:34:01.479Z,36.95
2022-08-18T03:35:03.536Z,36.15
2022-08-18T03:36:07.154Z,37.25
2022-08-18T03:37:10.359Z,37.42
2022-08-18T03:38:13.041Z,36.10
2022-08-18T03:39:15.731Z,37.95
2022-08-18T03:40:17.666Z,35.85
2022-08-18T03:41:44.016Z,35.67
2022-08-18T03:42:47.790Z,35.70
2022-08-18T03:43:51.873Z,33.70
2022-08-18T03:44:54.783Z,35.70
2022-08-18T03:46:01.025Z,34.78
2022-08-18T03:47:04.170Z,34.38
2022-08-18T03:48:05.994Z,33.65
2022-08-18T03:49:08.991Z,34.83
2022-08-18T03:50:13.863Z,34.72
2022-08-18T03:51:20.035Z,36.60
2022-08-18T03:52:23.484Z,34.72
2022-08-18T03:53:25.111Z,35.10
2022-08-18T03:54:28.174Z,35.78
2022-08-18T03:55:29.896Z,34.65
2022-08-18T03:56:41.082Z,37.38
2022-08-18T03:57:42.839Z,35.47
2022-08-18T03:58:48.226Z,33.70
2022-08-18T03:59:49.931Z,37.38
2022-08-18T04:00:52.616Z,36.38
2022-08-18T04:01:55.251Z,39.83
2022-08-18T04:02:59.430Z,31.75
2022-08-18T04:04:03.481Z,38.85
2022-08-18T04:05:07.353Z,39.40
2022-08-18T04:06:14.509Z,38.30
2022-08-18T04:07:17.748Z,39.78
2022-08-18T04:08:19.383Z,40.53
2022-08-18T04:09:24.481Z,37.97
2022-08-18T04:10:26.527Z,39.55
2022-08-18T04:11:29.851Z,40.40
2022-08-18T04:12:38.543Z,40.25
2022-08-18T04:13:40.661Z,40.05
2022-08-18T04:14:47.882Z,39.53
2022-08-18T04:15:49.973Z,37.83
2022-08-18T04:16:52.835Z,39.35
2022-08-18T04:17:56.193Z,38.50
2022-08-18T04:19:07.497Z,38.25
2022-08-18T04:20:12.535Z,38.13
2022-08-18T04:21:17.359Z,37.20
2022-08-18T04:22:19.032Z,36.10
2022-08-18T04:23:23.566Z,36.03
2022-08-18T04:24:32.019Z,37.78
2022-08-18T04:25:35.727Z,38.47
2022-08-18T04:26:39.295Z,38.28
2022-08-18T04:27:42.841Z,36.53
2022-08-18T04:28:44.684Z,38.90
2022-08-18T04:29:49.498Z,38.75
2022-08-18T04:30:51.263Z,38.35
2022-08-18T04:31:53.903Z,40.78
2022-08-18T04:32:55.539Z,38.08
2022-08-18T04:33:59.355Z,37.15
2022-08-18T04:35:02.734Z,39.33
2022-08-18T04:36:11.474Z,38.63
2022-08-18T04:37:17.598Z,38.05
2022-08-18T04:38:19.231Z,38.42
2022-08-18T04:39:22.701Z,39.00
2022-08-18T04:40:26.280Z,36.95
2022-08-18T04:41:29.503Z,38.25
2022-08-18T04:42:31.194Z,37.95
2022-08-18T04:43:34.035Z,39.38
2022-08-18T04:44:37.791Z,36.90
2022-08-18T04:45:42.024Z,38.88
2022-08-18T04:46:46.372Z,39.30
2022-08-18T04:47:49.047Z,35.80
2022-08-18T04:48:50.867Z,38.53
2022-08-18T04:49:53.563Z,37.55
2022-08-18T04:50:55.203Z,37.72
2022-08-18T04:52:37.511Z,38.60
2022-08-18T04:53:47.632Z,41.63
2022-08-18T04:54:49.288Z,37.70
2022-08-18T04:55:53.376Z,36.50
2022-08-18T04:56:55.117Z,38.80
2022-08-18T04:57:59.283Z,38.83
2022-08-18T04:59:02.985Z,40.15
2022-08-18T05:00:07.441Z,38.00
2022-08-18T05:01:10.909Z,39.05
2022-08-18T05:02:15.016Z,39.55
2022-08-18T05:03:16.828Z,39.67
2022-08-18T05:04:19.423Z,40.08
2022-08-18T05:05:21.027Z,39.35
2022-08-18T05:06:25.471Z,42.42
2022-08-18T05:07:27.096Z,41.85
2022-08-18T05:08:31.139Z,39.90
2022-08-18T05:09:33.279Z,41.40
2022-08-18T05:10:44.115Z,40.53
2022-08-18T05:11:45.788Z,41.20
2022-08-18T05:12:48.996Z,40.83
2022-08-18T05:13:52.169Z,40.65
2022-08-18T05:14:56.993Z,42.53
2022-08-18T05:16:18.067Z,43.17
2022-08-18T05:17:30.083Z,40.10
2022-08-18T05:18:33.155Z,40.35
2022-08-18T05:19:36.148Z,41.78
2022-08-18T05:20:44.571Z,40.00
2022-08-18T05:21:50.872Z,40.53
2022-08-18T05:22:53.378Z,42.83
2022-08-18T05:23:55.961Z,41.83
2022-08-18T05:24:58.101Z,41.65
2022-08-18T05:26:03.608Z,42.33
2022-08-18T05:27:05.632Z,25.65
2022-08-18T05:28:09.341Z,42.33
2022-08-18T05:29:19.154Z,41.65
2022-08-18T05:30:22.624Z,44.78
2022-08-18T05:31:26.184Z,43.58
2022-08-18T05:32:47.859Z,43.05
2022-08-18T05:33:55.551Z,43.15
2022-08-18T05:34:57.398Z,43.92
2022-08-18T05:36:04.437Z,45.25
2022-08-18T05:37:16.894Z,30.60
2022-08-18T05:38:32.769Z,43.60
2022-08-18T05:39:40.773Z,42.58
2022-08-18T05:40:45.668Z,43.08
2022-08-18T05:41:52.760Z,44.28
2022-08-18T05:42:56.063Z,46.33
2022-08-18T05:43:59.112Z,44.72
2022-08-18T05:45:13.176Z,48.33
2022-08-18T05:46:16.178Z,44.22
2022-08-18T05:47:26.596Z,44.22
2022-08-18T05:48:29.598Z,46.55
2022-08-18T05:49:32.519Z,44.42
2022-08-18T05:50:36.478Z,45.33
2022-08-18T05:51:42.205Z,45.08
2022-08-18T05:52:50.493Z,43.50
2022-08-18T05:54:11.152Z,44.35
2022-08-18T05:55:33.462Z,43.92
2022-08-18T05:56:54.087Z,44.92
2022-08-18T05:58:01.864Z,43.72
2022-08-18T05:59:04.560Z,42.30
2022-08-18T06:00:12.534Z,41.78
2022-08-18T06:01:17.156Z,42.50
2022-08-18T06:02:32.090Z,43.70
2022-08-18T06:03:46.641Z,39.38
2022-08-18T06:04:53.401Z,40.97
2022-08-18T06:05:58.943Z,44.22
2022-08-18T06:07:05.511Z,42.78
2022-08-18T06:08:09.973Z,42.08
2022-08-18T06:09:15.300Z,40.72
2022-08-18T06:10:17.009Z,43.25
2022-08-18T06:11:22.766Z,41.85
2022-08-18T06:12:28.215Z,40.88
2022-08-18T06:13:31.687Z,44.90
2022-08-18T06:14:33.372Z,42.47
2022-08-18T06:15:44.247Z,42.22
2022-08-18T06:16:56.018Z,32.17
2022-08-18T06:18:10.123Z,40.15
2022-08-18T06:19:22.114Z,42.85
2022-08-18T06:20:30.168Z,41.30
2022-08-18T06:21:39.783Z,42.45
2022-08-18T06:22:52.370Z,39.80
2022-08-18T06:24:07.096Z,41.40
2022-08-18T06:25:15.641Z,41.50
2022-08-18T06:26:27.980Z,41.17
2022-08-18T06:27:40.245Z,43.75
2022-08-18T06:28:52.650Z,40.92
2022-08-18T06:30:05.118Z,42.10
2022-08-18T06:31:16.987Z,41.78
2022-08-18T06:32:28.606Z,41.80
2022-08-18T06:33:42.835Z,43.67
2022-08-18T06:35:02.401Z,41.80
2022-08-18T06:36:08.842Z,41.42
2022-08-18T06:37:21.594Z,40.58
2022-08-18T06:38:38.478Z,40.92
2022-08-18T06:39:46.706Z,39.75
2022-08-18T06:40:48.745Z,40.05
2022-08-18T06:41:53.595Z,40.40
2022-08-18T06:42:55.586Z,39.58
2022-08-18T06:44:08.514Z,39.97
2022-08-18T06:45:12.993Z,39.88
2022-08-18T06:46:19.428Z,41.67
2022-08-18T06:47:30.741Z,40.42
2022-08-18T06:48:36.331Z,40.80
2022-08-18T06:49:42.887Z,39.03
2022-08-18T06:50:49.480Z,37.45
2022-08-18T06:51:52.199Z,39.10
2022-08-18T06:52:56.699Z,37.92
2022-08-18T06:54:01.820Z,37.00
2022-08-18T06:55:08.754Z,37.08
2022-08-18T06:56:26.625Z,39.08
2022-08-18T06:57:33.355Z,37.55
2022-08-18T06:58:35.055Z,36.03
2022-08-18T06:59:38.372Z,36.53
2022-08-18T07:00:43.346Z,38.17
2022-08-18T07:01:56.306Z,36.67
2022-08-18T07:03:02.237Z,34.83
2022-08-18T07:04:04.027Z,36.33
2022-08-18T07:05:09.713Z,36.15
2022-08-18T07:06:31.264Z,35.10
2022-08-18T07:07:40.335Z,34.63
2022-08-18T07:08:44.740Z,36.13
2022-08-18T07:09:47.045Z,37.03
2022-08-18T07:10:51.393Z,37.20
2022-08-18T07:12:02.691Z,35.17
2022-08-18T07:13:16.002Z,34.63
2022-08-18T07:14:22.091Z,37.95
2022-08-18T07:15:25.743Z,38.00
2022-08-18T07:16:56.601Z,37.55
2022-08-18T07:18:04.942Z,37.03
2022-08-18T07:19:07.964Z,35.58
2022-08-18T07:20:20.258Z,35.53
2022-08-18T07:21:28.767Z,34.47
2022-08-18T07:22:39.646Z,36.38
2022-08-18T07:23:41.503Z,34.70
2022-08-18T07:24:46.303Z,36.38
2022-08-18T07:25:51.345Z,35.10
2022-08-18T07:27:01.907Z,36.38
2022-08-18T07:28:04.678Z,34.70
2022-08-18T07:29:14.978Z,35.20
2022-08-18T07:30:29.404Z,36.05
2022-08-18T07:31:37.514Z,34.50
2022-08-18T07:32:44.544Z,34.30
2022-08-18T07:33:56.527Z,36.30
2022-08-18T07:35:01.444Z,35.15
2022-08-18T07:36:06.501Z,36.17
2022-08-18T07:37:16.064Z,34.28
2022-08-18T07:38:42.051Z,36.65
2022-08-18T07:39:49.531Z,36.55
2022-08-18T07:40:56.555Z,36.60
2022-08-18T07:42:04.695Z,37.10
2022-08-18T07:43:09.550Z,35.05
2022-08-18T07:44:18.600Z,34.53
2022-08-18T07:45:26.773Z,36.15
2022-08-18T07:46:35.543Z,34.85
2022-08-18T07:47:43.511Z,35.53
2022-08-18T07:48:46.751Z,33.85
2022-08-18T07:50:15.693Z,33.17
2022-08-18T07:51:17.326Z,34.90
2022-08-18T07:52:43.755Z,33.95
2022-08-18T07:53:54.807Z,23.20
2022-08-18T07:55:06.790Z,18.20
2022-08-18T07:56:15.709Z,19.45
2022-08-18T07:57:25.221Z,28.60
2022-08-18T07:58:30.493Z,20.13
2022-08-18T07:59:36.751Z,18.30
2022-08-18T08:00:58.091Z,18.35
2022-08-18T08:02:20.887Z,18.42
2022-08-18T08:03:32.133Z,30.08
2022-08-18T08:04:41.647Z,31.30
2022-08-18T08:05:51.514Z,21.95
2022-08-18T08:07:22.944Z,22.02
2022-08-18T08:08:26.068Z,18.80
2022-08-18T08:09:34.364Z,26.35
2022-08-18T08:10:42.864Z,30.50
2022-08-18T08:11:53.001Z,31.33
2022-08-18T08:13:09.134Z,29.90
2022-08-18T08:14:26.679Z,30.98
2022-08-18T08:15:35.011Z,30.77
2022-08-18T08:16:41.284Z,29.25
2022-08-18T08:17:48.032Z,31.52
2022-08-18T08:19:12.430Z,31.42
2022-08-18T08:20:30.259Z,31.30
2022-08-18T08:21:40.399Z,30.05
2022-08-18T08:22:54.562Z,29.92
2022-08-18T08:24:08.407Z,29.30
2022-08-18T08:25:42.918Z,28.15
2022-08-18T08:26:50.643Z,29.15
2022-08-18T08:28:03.042Z,29.65
2022-08-18T08:29:16.143Z,30.77
2022-08-18T08:30:21.046Z,30.27
2022-08-18T08:31:37.985Z,28.92
2022-08-18T08:32:46.697Z,19.98
2022-08-18T08:33:52.524Z,29.02
2022-08-18T08:34:58.150Z,29.42
2022-08-18T08:36:05.836Z,28.65
2022-08-18T08:37:14.814Z,26.55
2022-08-18T08:38:39.930Z,28.83
2022-08-18T08:39:47.847Z,27.55
2022-08-18T08:40:53.969Z,29.10
2022-08-18T08:42:29.096Z,27.15
2022-08-18T08:43:25.507Z,26.98
2022-08-18T08:44:34.097Z,28.13
2022-08-18T08:45:38.171Z,25.90
2022-08-18T08:46:46.813Z,28.58
2022-08-18T08:48:06.665Z,27.45
2022-08-18T08:49:20.551Z,26.80
2022-08-18T08:50:26.876Z,25.40
2022-08-18T08:51:33.613Z,27.83
2022-08-18T08:52:39.996Z,20.33
2022-08-18T08:53:47.894Z,24.23
2022-08-18T08:54:55.496Z,22.25
2022-08-18T08:56:02.375Z,25.83
2022-08-18T08:57:06.080Z,25.83
2022-08-18T08:58:19.751Z,25.58
2022-08-18T08:59:23.382Z,25.42
2022-08-18T09:00:26.286Z,26.30
2022-08-18T09:01:41.729Z,27.38
2022-08-18T09:02:59.312Z,25.42
2022-08-18T09:04:08.934Z,24.67
2022-08-18T09:05:13.692Z,24.73
2022-08-18T09:06:25.693Z,24.33
2022-08-18T09:07:39.641Z,24.60
2022-08-18T09:08:52.788Z,26.25
2022-08-18T09:10:11.937Z,23.90
2022-08-18T09:11:23.178Z,25.13
2022-08-18T09:12:39.276Z,23.77
2022-08-18T09:13:58.138Z,24.23
2022-08-18T09:15:08.861Z,23.40
2022-08-18T09:16:21.494Z,23.63
2022-08-18T09:17:45.627Z,24.05
2022-08-18T09:18:55.563Z,17.08
2022-08-18T09:20:09.219Z,16.35
2022-08-18T09:21:22.950Z,25.00
2022-08-18T09:22:36.272Z,23.42
2022-08-18T09:23:42.570Z,23.42
2022-08-18T09:24:48.126Z,14.15
2022-08-18T09:25:56.594Z,19.17
2022-08-18T09:27:15.319Z,21.27
2022-08-18T09:28:20.149Z,17.50
2022-08-18T09:29:25.915Z,22.00
2022-08-18T09:30:42.307Z,22.33
2022-08-18T09:31:44.755Z,21.75
2022-08-18T09:32:57.964Z,20.08
2022-08-18T09:34:23.074Z,19.65
2022-08-18T09:35:41.282Z,16.80
2022-08-18T09:36:56.488Z,19.20
2022-08-18T09:38:20.699Z,13.88
2022-08-18T09:39:49.124Z,17.35
2022-08-18T09:41:23.268Z,21.17
2022-08-18T09:42:49.874Z,18.27
2022-08-18T09:44:17.726Z,11.13
2022-08-18T09:45:43.676Z,13.63
2022-08-18T09:48:28.319Z,17.40
2022-08-18T09:50:37.218Z,17.58
2022-08-18T09:51:32.727Z,11.15
2022-08-18T09:52:58.928Z,9.95
2022-08-18T09:54:13.132Z,16.92
2022-08-18T09:55:38.476Z,15.00
2022-08-18T09:57:19.378Z,16.85
2022-08-18T09:58:52.669Z,18.23
2022-08-18T10:01:52.462Z,17.20
2022-08-18T10:03:15.410Z,17.42
2022-08-18T10:04:32.882Z,17.23
2022-08-18T10:05:34.660Z,14.77
2022-08-18T10:06:38.391Z,13.85
2022-08-18T10:07:45.766Z,15.35
2022-08-18T10:09:17.834Z,17.00
2022-08-18T10:11:01.027Z,15.68
2022-08-18T10:12:20.194Z,14.95
2022-08-18T10:13:25.104Z,15.13
2022-08-18T10:14:45.292Z,11.80
2022-08-18T10:16:10.323Z,14.80
2022-08-18T10:17:23.842Z,14.32
2022-08-18T10:18:53.250Z,14.52
2022-08-18T10:20:02.251Z,13.73
2022-08-18T10:21:10.574Z,15.25
2022-08-18T10:22:16.013Z,14.10
2022-08-18T10:23:47.323Z,15.82
2022-08-18T10:24:56.117Z,14.52
2022-08-18T10:26:00.357Z,13.57
2022-08-18T10:27:10.227Z,13.52
2022-08-18T10:28:54.937Z,13.52
2022-08-18T10:29:58.795Z,12.63
2022-08-18T10:31:05.817Z,13.30
2022-08-18T10:32:23.129Z,13.60
2022-08-18T10:33:59.302Z,13.15
2022-08-18T10:35:01.954Z,13.88
2022-08-18T10:36:03.779Z,13.30
2022-08-18T10:37:13.528Z,13.82
2022-08-18T10:38:45.959Z,14.48
2022-08-18T10:39:54.159Z,13.15
2022-08-18T10:41:03.686Z,12.77
2022-08-18T10:42:17.469Z,9.65
2022-08-18T10:43:55.304Z,14.13
2022-08-18T10:45:02.286Z,13.55
2022-08-18T10:46:33.157Z,10.55
2022-08-18T10:47:38.236Z,13.77
2022-08-18T10:48:40.176Z,13.75
2022-08-18T10:49:49.267Z,13.93
2022-08-18T10:50:53.036Z,12.50
2022-08-18T10:52:13.081Z,13.75
2022-08-18T10:53:39.802Z,12.20
2022-08-18T10:55:02.376Z,12.90
2022-08-18T10:56:10.128Z,11.80
2022-08-18T10:57:16.600Z,12.02
2022-08-18T10:58:40.579Z,12.73
2022-08-18T10:59:50.477Z,12.13
2022-08-18T11:01:13.319Z,12.32
2022-08-18T11:02:28.903Z,13.07
2022-08-18T11:03:52.219Z,11.75
2022-08-18T11:04:59.970Z,9.40
2022-08-18T11:06:04.320Z,12.07
2022-08-18T11:07:12.402Z,8.18
2022-08-18T11:08:17.212Z,9.57
2022-08-18T11:09:24.331Z,12.23
2022-08-18T11:10:57.636Z,11.73
2022-08-18T11:12:01.968Z,11.98
2022-08-18T11:13:10.516Z,12.23
2022-08-18T11:14:29.571Z,11.93
2022-08-18T11:15:45.163Z,9.55
2022-08-18T11:16:56.103Z,7.18
2022-08-18T11:18:10.128Z,10.60
2022-08-18T11:19:14.492Z,10.90
2022-08-18T11:20:21.183Z,11.18
2022-08-18T11:21:24.887Z,12.32
2022-08-18T11:22:31.644Z,11.25
2022-08-18T11:23:34.614Z,11.48
2022-08-18T11:24:45.309Z,8.38
2022-08-18T11:25:48.365Z,8.63
2022-08-18T11:26:54.792Z,11.73
2022-08-18T11:27:56.676Z,11.05
2022-08-18T11:28:59.253Z,11.27
2022-08-18T11:30:03.594Z,10.88
2022-08-18T11:32:32.793Z,10.35
2022-08-18T11:33:40.017Z,10.27
2022-08-18T11:34:53.430Z,11.48
2022-08-18T11:35:57.969Z,10.63
2022-08-18T11:37:04.747Z,9.68
2022-08-18T11:38:13.659Z,8.02
2022-08-18T11:39:36.895Z,10.70
2022-08-18T11:42:09.110Z,11.15
2022-08-18T11:43:21.448Z,11.05
2022-08-18T11:44:33.011Z,10.50
2022-08-18T11:45:52.116Z,10.35
2022-08-18T11:46:57.186Z,10.63
2022-08-18T11:48:10.171Z,11.35
2022-08-18T11:50:54.365Z,11.35
2022-08-18T11:52:02.216Z,10.13
2022-08-18T11:53:18.877Z,10.85
2022-08-18T11:54:37.435Z,11.05
2022-08-18T11:55:42.627Z,11.07
2022-08-18T11:56:50.935Z,10.52
2022-08-18T11:57:58.715Z,8.77
2022-08-18T11:59:07.922Z,9.05
2022-08-18T12:00:44.028Z,9.15
2022-08-18T12:01:51.246Z,9.13
2022-08-18T12:03:02.480Z,6.53
2022-08-18T12:04:13.413Z,6.93
2022-08-18T12:05:15.091Z,11.40
2022-08-18T12:06:21.886Z,9.98
2022-08-18T12:07:31.959Z,11.48
2022-08-18T12:10:26.528Z,10.77
2022-08-18T12:11:33.413Z,10.32
2022-08-18T12:12:44.962Z,10.98
2022-08-18T12:13:57.817Z,10.32
2022-08-18T12:15:09.179Z,11.98
2022-08-18T12:16:33.618Z,9.95
2022-08-18T12:17:36.236Z,10.85
2022-08-18T12:18:39.878Z,10.70
2022-08-18T12:19:44.618Z,10.10
2022-08-18T12:20:49.252Z,11.05
2022-08-18T12:21:56.526Z,9.65
2022-08-18T12:22:58.252Z,10.68
2022-08-18T12:24:00.900Z,11.45
2022-08-18T12:27:52.163Z,9.77
2022-08-18T12:28:53.809Z,9.90
2022-08-18T12:30:05.726Z,11.20
2022-08-18T12:31:15.028Z,11.05
2022-08-18T12:32:46.556Z,9.38
2022-08-18T12:33:48.318Z,10.18
2022-08-18T12:35:09.595Z,10.20
2022-08-18T12:36:13.635Z,10.63
2022-08-18T12:37:54.478Z,10.35
2022-08-18T12:38:40.320Z,9.65
2022-08-18T12:39:44.849Z,11.23
2022-08-18T12:40:47.436Z,11.85
2022-08-18T12:41:49.102Z,12.15
2022-08-18T12:42:51.936Z,12.15
2022-08-18T12:43:58.584Z,11.57
2022-08-18T12:45:01.296Z,11.68
2022-08-18T12:46:04.054Z,12.18
2022-08-18T12:47:10.628Z,11.25
2022-08-18T12:48:16.006Z,11.27
2022-08-18T12:49:21.937Z,10.88
2022-08-18T12:50:30.852Z,11.05
2022-08-18T12:51:36.048Z,10.82
2022-08-18T12:52:37.696Z,11.05
2022-08-18T12:53:59.491Z,10.77
2022-08-18T12:55:01.821Z,8.95
2022-08-18T12:56:07.207Z,9.27
2022-08-18T12:58:40.550Z,7.35
2022-08-18T12:59:42.325Z,10.13
2022-08-18T13:00:46.483Z,8.90
2022-08-18T13:01:48.275Z,8.90
2022-08-18T13:02:52.199Z,7.30
2022-08-18T13:04:13.348Z,7.10
2022-08-18T13:05:18.584Z,10.18
2022-08-18T13:06:31.327Z,6.63
2022-08-18T13:07:33.378Z,9.32
2022-08-18T13:08:38.254Z,7.28
2022-08-18T13:09:54.292Z,5.95
2022-08-18T13:10:58.180Z,7.45
2022-08-18T13:12:00.995Z,9.25
2022-08-18T13:13:02.610Z,10.60
2022-08-18T13:14:08.717Z,10.25
2022-08-18T13:15:12.692Z,9.93
2022-08-18T13:16:16.492Z,8.85
2022-08-18T13:17:45.301Z,6.88
2022-08-18T13:18:51.201Z,9.13
2022-08-18T13:19:53.890Z,8.70
2022-08-18T13:21:00.160Z,9.43
2022-08-18T13:22:01.827Z,9.65
2022-08-18T13:23:06.291Z,9.57
2022-08-18T13:24:12.734Z,10.48
2022-08-18T13:25:32.713Z,9.20
2022-08-18T13:26:45.966Z,7.65
2022-08-18T13:27:48.005Z,7.85
2022-08-18T13:28:56.774Z,6.93
2022-08-18T13:29:59.522Z,7.93
2022-08-18T13:31:02.535Z,8.23
2022-08-18T13:32:09.286Z,7.28
2022-08-18T13:33:34.546Z,8.55
2022-08-18T13:34:38.998Z,8.05
2022-08-18T13:35:46.821Z,8.10
2022-08-18T13:36:50.276Z,8.52
2022-08-18T13:37:54.254Z,8.68
2022-08-18T13:38:58.078Z,9.07
2022-08-18T13:40:02.094Z,9.55
2022-08-18T13:41:06.298Z,8.13
2022-08-18T13:42:21.753Z,7.65
2022-08-18T13:43:34.427Z,7.45
2022-08-18T13:44:36.428Z,8.20
2022-08-18T13:45:39.407Z,7.75
2022-08-18T13:46:45.880Z,7.72
2022-08-18T13:47:51.170Z,7.85
2022-08-18T13:48:53.688Z,5.45
2022-08-18T13:49:58.835Z,5.32
2022-08-18T13:51:02.003Z,7.07
2022-08-18T13:52:12.202Z,7.88
2022-08-18T13:53:31.501Z,7.00
2022-08-18T13:54:35.487Z,8.13
2022-08-18T13:55:38.256Z,8.55
2022-08-18T13:56:39.941Z,7.20
2022-08-18T13:57:48.358Z,7.07
2022-08-18T13:58:53.594Z,5.85
2022-08-18T13:59:56.384Z,6.82
2022-08-18T14:01:15.937Z,6.28
2022-08-18T14:02:26.864Z,7.10
2022-08-18T14:03:42.391Z,7.65
2022-08-18T14:04:51.843Z,6.50
2022-08-18T14:06:00.967Z,7.28
2022-08-18T14:07:10.365Z,6.43
2022-08-18T14:08:19.484Z,6.07
2022-08-18T14:09:36.315Z,6.55
2022-08-18T14:10:40.330Z,6.63
2022-08-18T14:11:42.330Z,6.43
2022-08-18T14:12:46.191Z,6.60
2022-08-18T14:13:48.872Z,5.80
2022-08-18T14:14:52.528Z,5.45
2022-08-18T14:15:56.578Z,5.40
2022-08-18T14:16:59.337Z,5.90
2022-08-18T14:18:01.912Z,6.30
2022-08-18T14:19:26.121Z,6.57
2022-08-18T14:20:48.573Z,6.70
2022-08-18T14:22:13.855Z,7.07
2022-08-18T14:23:35.400Z,6.90
2022-08-18T14:24:58.792Z,7.30
2022-08-18T14:26:19.062Z,6.97
2022-08-18T14:27:28.038Z,7.45
2022-08-18T14:28:38.499Z,6.18
2022-08-18T14:29:47.883Z,6.47
2022-08-18T14:30:54.493Z,5.68
2022-08-18T14:31:57.332Z,5.75
2022-08-18T14:33:00.331Z,6.30
2022-08-18T14:34:04.356Z,5.50
2022-08-18T14:35:33.339Z,5.72
2022-08-18T14:36:32.313Z,6.00
2022-08-18T14:37:36.098Z,6.10
2022-08-18T14:38:40.585Z,6.10
2022-08-18T14:39:47.859Z,5.90
2022-08-18T14:40:53.188Z,6.47
2022-08-18T14:41:56.930Z,6.10
2022-08-18T14:42:59.549Z,6.00
2022-08-18T14:44:13.674Z,5.75
2022-08-18T14:45:27.704Z,5.95
2022-08-18T14:46:34.693Z,5.53
2022-08-18T14:47:37.343Z,5.90
2022-08-18T14:48:42.542Z,5.90
2022-08-18T14:49:49.588Z,5.35
2022-08-18T14:50:55.315Z,5.20
2022-08-18T14:51:58.297Z,4.95
2022-08-18T14:53:00.855Z,5.22
2022-08-18T14:54:05.210Z,5.80
2022-08-18T14:55:08.592Z,5.25
2022-08-18T14:56:12.471Z,5.32
2022-08-18T14:57:14.994Z,5.20
2022-08-18T14:58:18.682Z,4.97